Crossmaglen, United Kingdom
Current Conditions -  °F | °C
As of 1:50 AM on Monday 22 Dec 2014 (Local Time) from EGAA Reporting Station
Light Rain Light Rain  
Wind Chill: 50°   Ceiling: 700
Heat Index: 50°   Visibility: 6mi
Dew Point: 50°   Wind: 16mph
Humidity: 100%   Direction: 230°SW
Pressure: 29.71"   Gusts: NA
Location:  54.08°N, 6.6°W
Report Text: EGAA 220150Z 23014KT 9999 -RA SCT004 BKN007 OVC016 10/10 Q1006
Loading
Personal Weather Stations






























Interactive Weather Map New forecast layout! Learn more

10-Day Weather Forecast

Advertisements
Track Severe Weather on mobile